createdAt,value
2022-08-23T00:24:08.288Z,100052.70
2022-08-23T00:38:59.985Z,100061.16
2022-08-23T00:53:52.131Z,100062.05
2022-08-23T01:08:44.061Z,100073.28
2022-08-23T01:23:40.703Z,100074.91
2022-08-23T01:38:35.029Z,100074.45
2022-08-23T01:53:25.974Z,100076.44
2022-08-23T02:08:35.731Z,100076.62
2022-08-23T02:23:32.619Z,100095.92
2022-08-23T02:38:24.623Z,100096.14
2022-08-23T02:53:15.913Z,100110.30
2022-08-23T03:08:07.531Z,100119.23
2022-08-23T03:22:58.739Z,100126.72
2022-08-23T03:37:54.689Z,100140.27
2022-08-23T03:52:41.807Z,100143.82
2022-08-23T04:07:33.907Z,100162.30
2022-08-23T04:22:26.960Z,100169.93
2022-08-23T04:37:17.957Z,100185.31
2022-08-23T04:52:09.572Z,100199.54
2022-08-23T05:07:00.375Z,100212.08
2022-08-23T05:21:56.348Z,100238.30
2022-08-23T05:36:48.097Z,100254.75
2022-08-23T05:51:34.992Z,100263.58
2022-08-23T06:06:37.217Z,100286.70
2022-08-23T06:21:18.466Z,100286.27
2022-08-23T06:36:10.908Z,100290.30
2022-08-23T06:51:03.765Z,100307.85
2022-08-23T07:05:55.926Z,100312.30
2022-08-23T07:20:48.761Z,100312.72
2022-08-23T07:35:41.463Z,100315.05
2022-08-23T07:50:35.117Z,100321.09
2022-08-23T08:05:28.761Z,100334.41
2022-08-23T08:20:22.952Z,100335.94
2022-08-23T08:35:15.522Z,100344.78
2022-08-23T08:50:29.777Z,100352.94
2022-08-23T09:05:27.357Z,100346.92
2022-08-23T09:20:19.979Z,100343.20
2022-08-23T09:35:11.864Z,100348.48
2022-08-23T09:50:15.861Z,100350.14
2022-08-23T10:05:16.429Z,100334.08
2022-08-23T10:20:45.861Z,100322.45
2022-08-23T10:36:05.672Z,100306.93
2022-08-23T10:51:22.627Z,100290.66
2022-08-23T11:06:30.407Z,100280.81
2022-08-23T11:21:37.928Z,100268.48
2022-08-23T11:36:34.905Z,100257.72
2022-08-23T11:51:28.816Z,100256.11
2022-08-23T12:06:50.517Z,100241.22
2022-08-23T12:21:47.512Z,100231.32
2022-08-23T12:37:09.339Z,100220.46
2022-08-23T12:52:10.896Z,100213.80
2022-08-23T13:07:07.058Z,100215.52
2022-08-23T13:22:14.054Z,100208.31
2022-08-23T13:37:23.248Z,100196.25
2022-08-23T14:07:14.347Z,100185.36
2022-08-23T14:22:07.137Z,100171.66
2022-08-23T14:51:52.621Z,100161.74
2022-08-23T15:07:06.869Z,100162.45
2022-08-23T15:21:40.251Z,100165.84
2022-08-23T15:36:33.241Z,100156.19
2022-08-23T15:51:23.861Z,100146.80
2022-08-23T16:06:13.403Z,100142.88
2022-08-23T16:21:03.924Z,100137.32
2022-08-23T16:35:56.758Z,100147.04
2022-08-23T16:50:49.410Z,100159.94
2022-08-23T17:05:41.762Z,100148.34
2022-08-23T17:20:33.054Z,100156.98
2022-08-23T17:35:24.266Z,100162.03
2022-08-23T17:50:15.894Z,100183.05
2022-08-23T18:05:13.753Z,100197.92
2022-08-23T18:20:02.341Z,100208.12
2022-08-23T19:04:36.708Z,100260.77
2022-08-23T19:19:27.971Z,100272.48
2022-08-23T19:34:19.236Z,100289.03
2022-08-23T19:49:10.672Z,100293.79
2022-08-23T20:04:02.706Z,100295.39
2022-08-23T20:18:58.936Z,100300.71
2022-08-23T20:33:46.373Z,100307.17
2022-08-23T20:48:36.944Z,100299.59
2022-08-23T21:03:28.135Z,100310.86
2022-08-23T21:18:20.201Z,100316.11
2022-08-23T21:33:12.580Z,100319.27
2022-08-23T21:48:04.498Z,100317.42
2022-08-23T22:02:55.921Z,100319.55
2022-08-23T22:17:47.455Z,100309.17
2022-08-23T22:32:39.159Z,100311.27
2022-08-23T22:47:30.610Z,100306.59
2022-08-23T23:02:22.581Z,100315.89
2022-08-23T23:17:14.621Z,100318.56
2022-08-23T23:32:06.211Z,100309.36
2022-08-23T23:46:58.410Z,100326.72
